sensor_id;sensor_type;location;lat;lon;timestamp;P1;durP1;ratioP1;P2;durP2;ratioP2
10894;SDS011;5500;49.886;8.074;2023-06-14T00:00:50;5.77;;;4.00;;
10894;SDS011;5500;49.886;8.074;2023-06-14T00:03:19;6.63;;;4.20;;
10894;SDS011;5500;49.886;8.074;2023-06-14T00:05:48;4.10;;;3.77;;
10894;SDS011;5500;49.886;8.074;2023-06-14T00:08:16;6.67;;;4.30;;
10894;SDS011;5500;49.886;8.074;2023-06-14T00:10:45;4.70;;;3.90;;
10894;SDS011;5500;49.886;8.074;2023-06-14T00:13:15;6.73;;;4.10;;
10894;SDS011;5500;49.886;8.074;2023-06-14T00:15:44;7.17;;;4.40;;
10894;SDS011;5500;49.886;8.074;2023-06-14T00:18:14;7.83;;;4.03;;
10894;SDS011;5500;49.886;8.074;2023-06-14T00:20:42;4.80;;;4.27;;
10894;SDS011;5500;49.886;8.074;2023-06-14T00:23:10;4.40;;;4.00;;
10894;SDS011;5500;49.886;8.074;2023-06-14T00:25:38;8.23;;;4.57;;
10894;SDS011;5500;49.886;8.074;2023-06-14T00:28:06;7.23;;;3.90;;
10894;SDS011;5500;49.886;8.074;2023-06-14T00:30:33;4.53;;;4.13;;
10894;SDS011;5500;49.886;8.074;2023-06-14T00:33:01;4.50;;;4.10;;
10894;SDS011;5500;49.886;8.074;2023-06-14T00:35:30;6.80;;;4.10;;
10894;SDS011;5500;49.886;8.074;2023-06-14T00:37:58;7.37;;;4.03;;
10894;SDS011;5500;49.886;8.074;2023-06-14T00:40:26;7.53;;;4.40;;
10894;SDS011;5500;49.886;8.074;2023-06-14T00:42:54;5.00;;;4.40;;
10894;SDS011;5500;49.886;8.074;2023-06-14T00:45:21;6.37;;;4.20;;
10894;SDS011;5500;49.886;8.074;2023-06-14T00:47:49;4.37;;;3.97;;
10894;SDS011;5500;49.886;8.074;2023-06-14T00:50:18;5.30;;;4.30;;
10894;SDS011;5500;49.886;8.074;2023-06-14T00:52:49;4.90;;;4.00;;
10894;SDS011;5500;49.886;8.074;2023-06-14T00:55:17;4.13;;;3.60;;
10894;SDS011;5500;49.886;8.074;2023-06-14T00:57:44;6.83;;;4.37;;
10894;SDS011;5500;49.886;8.074;2023-06-14T01:00:14;5.90;;;4.20;;
10894;SDS011;5500;49.886;8.074;2023-06-14T01:02:42;6.27;;;4.07;;
10894;SDS011;5500;49.886;8.074;2023-06-14T01:05:10;7.07;;;4.60;;
10894;SDS011;5500;49.886;8.074;2023-06-14T01:07:43;5.57;;;3.80;;
10894;SDS011;5500;49.886;8.074;2023-06-14T01:10:28;5.77;;;4.10;;
10894;SDS011;5500;49.886;8.074;2023-06-14T01:13:03;5.47;;;4.03;;
10894;SDS011;5500;49.886;8.074;2023-06-14T01:15:35;5.13;;;4.30;;
10894;SDS011;5500;49.886;8.074;2023-06-14T01:18:04;4.77;;;3.80;;
10894;SDS011;5500;49.886;8.074;2023-06-14T01:20:32;4.33;;;3.93;;
10894;SDS011;5500;49.886;8.074;2023-06-14T01:23:04;9.33;;;3.67;;
10894;SDS011;5500;49.886;8.074;2023-06-14T01:25:32;5.77;;;3.43;;
10894;SDS011;5500;49.886;8.074;2023-06-14T01:28:03;4.43;;;3.10;;
10894;SDS011;5500;49.886;8.074;2023-06-14T01:30:37;6.13;;;3.87;;
10894;SDS011;5500;49.886;8.074;2023-06-14T01:33:11;5.37;;;3.90;;
10894;SDS011;5500;49.886;8.074;2023-06-14T01:35:41;5.17;;;3.70;;
10894;SDS011;5500;49.886;8.074;2023-06-14T01:38:11;3.90;;;3.50;;
10894;SDS011;5500;49.886;8.074;2023-06-14T01:40:40;5.40;;;4.37;;
10894;SDS011;5500;49.886;8.074;2023-06-14T01:43:08;6.53;;;3.87;;
10894;SDS011;5500;49.886;8.074;2023-06-14T01:45:38;3.50;;;3.20;;
10894;SDS011;5500;49.886;8.074;2023-06-14T01:48:06;5.87;;;3.83;;
10894;SDS011;5500;49.886;8.074;2023-06-14T01:50:35;8.33;;;3.80;;
10894;SDS011;5500;49.886;8.074;2023-06-14T01:53:02;7.97;;;3.70;;
10894;SDS011;5500;49.886;8.074;2023-06-14T01:55:32;5.13;;;3.50;;
10894;SDS011;5500;49.886;8.074;2023-06-14T01:58:03;5.00;;;3.37;;
10894;SDS011;5500;49.886;8.074;2023-06-14T02:00:32;3.90;;;3.60;;
10894;SDS011;5500;49.886;8.074;2023-06-14T02:02:59;6.97;;;3.60;;
10894;SDS011;5500;49.886;8.074;2023-06-14T02:05:27;4.37;;;3.60;;
10894;SDS011;5500;49.886;8.074;2023-06-14T02:07:55;4.63;;;4.00;;
10894;SDS011;5500;49.886;8.074;2023-06-14T02:10:23;5.57;;;3.50;;
10894;SDS011;5500;49.886;8.074;2023-06-14T02:12:52;6.60;;;3.73;;
10894;SDS011;5500;49.886;8.074;2023-06-14T02:15:19;5.67;;;3.67;;
10894;SDS011;5500;49.886;8.074;2023-06-14T02:17:48;6.63;;;3.20;;
10894;SDS011;5500;49.886;8.074;2023-06-14T02:20:17;4.10;;;3.70;;
10894;SDS011;5500;49.886;8.074;2023-06-14T02:22:45;4.50;;;3.57;;
10894;SDS011;5500;49.886;8.074;2023-06-14T02:25:12;5.20;;;3.77;;
10894;SDS011;5500;49.886;8.074;2023-06-14T02:27:41;4.53;;;3.93;;
10894;SDS011;5500;49.886;8.074;2023-06-14T02:30:11;5.60;;;3.60;;
10894;SDS011;5500;49.886;8.074;2023-06-14T02:32:40;4.70;;;3.70;;
10894;SDS011;5500;49.886;8.074;2023-06-14T02:35:09;4.40;;;3.87;;
10894;SDS011;5500;49.886;8.074;2023-06-14T02:37:36;5.77;;;3.67;;
10894;SDS011;5500;49.886;8.074;2023-06-14T02:40:05;3.60;;;3.30;;
10894;SDS011;5500;49.886;8.074;2023-06-14T02:42:35;4.07;;;3.27;;
10894;SDS011;5500;49.886;8.074;2023-06-14T02:45:03;4.47;;;3.50;;
10894;SDS011;5500;49.886;8.074;2023-06-14T02:47:32;7.80;;;3.50;;
10894;SDS011;5500;49.886;8.074;2023-06-14T02:50:00;7.00;;;3.60;;
10894;SDS011;5500;49.886;8.074;2023-06-14T02:52:28;4.33;;;3.17;;
10894;SDS011;5500;49.886;8.074;2023-06-14T02:54:56;6.53;;;3.70;;
10894;SDS011;5500;49.886;8.074;2023-06-14T02:57:23;4.93;;;3.40;;
10894;SDS011;5500;49.886;8.074;2023-06-14T02:59:51;5.50;;;3.30;;
10894;SDS011;5500;49.886;8.074;2023-06-14T03:02:19;6.40;;;3.63;;
10894;SDS011;5500;49.886;8.074;2023-06-14T03:04:49;6.60;;;3.60;;
10894;SDS011;5500;49.886;8.074;2023-06-14T03:07:16;5.37;;;3.20;;
10894;SDS011;5500;49.886;8.074;2023-06-14T03:09:46;7.63;;;3.90;;
10894;SDS011;5500;49.886;8.074;2023-06-14T03:12:16;6.93;;;3.63;;
10894;SDS011;5500;49.886;8.074;2023-06-14T03:14:43;5.73;;;3.50;;
10894;SDS011;5500;49.886;8.074;2023-06-14T03:17:13;4.03;;;3.47;;
10894;SDS011;5500;49.886;8.074;2023-06-14T03:19:43;5.13;;;3.90;;
10894;SDS011;5500;49.886;8.074;2023-06-14T03:22:12;3.80;;;3.30;;
10894;SDS011;5500;49.886;8.074;2023-06-14T03:24:43;7.90;;;3.67;;
10894;SDS011;5500;49.886;8.074;2023-06-14T03:27:11;5.27;;;3.40;;
10894;SDS011;5500;49.886;8.074;2023-06-14T03:29:38;5.43;;;3.53;;
10894;SDS011;5500;49.886;8.074;2023-06-14T03:32:06;6.03;;;3.43;;
10894;SDS011;5500;49.886;8.074;2023-06-14T03:34:35;4.93;;;3.33;;
10894;SDS011;5500;49.886;8.074;2023-06-14T03:37:05;7.87;;;3.50;;
10894;SDS011;5500;49.886;8.074;2023-06-14T03:39:34;5.60;;;3.80;;
10894;SDS011;5500;49.886;8.074;2023-06-14T03:42:02;4.33;;;3.53;;
10894;SDS011;5500;49.886;8.074;2023-06-14T03:44:30;3.50;;;3.03;;
10894;SDS011;5500;49.886;8.074;2023-06-14T03:46:57;7.83;;;3.70;;
10894;SDS011;5500;49.886;8.074;2023-06-14T03:49:25;4.00;;;3.30;;
10894;SDS011;5500;49.886;8.074;2023-06-14T03:51:53;3.57;;;3.20;;
10894;SDS011;5500;49.886;8.074;2023-06-14T03:54:21;6.17;;;3.47;;
10894;SDS011;5500;49.886;8.074;2023-06-14T03:56:53;3.97;;;3.10;;
10894;SDS011;5500;49.886;8.074;2023-06-14T03:59:20;5.40;;;3.53;;
10894;SDS011;5500;49.886;8.074;2023-06-14T04:01:48;7.30;;;3.70;;
10894;SDS011;5500;49.886;8.074;2023-06-14T04:04:16;9.50;;;3.37;;
10894;SDS011;5500;49.886;8.074;2023-06-14T04:06:44;6.47;;;3.30;;
10894;SDS011;5500;49.886;8.074;2023-06-14T04:09:14;7.63;;;3.83;;
10894;SDS011;5500;49.886;8.074;2023-06-14T04:11:42;7.63;;;3.50;;
10894;SDS011;5500;49.886;8.074;2023-06-14T04:14:11;7.67;;;3.40;;
10894;SDS011;5500;49.886;8.074;2023-06-14T04:16:39;5.20;;;3.57;;
10894;SDS011;5500;49.886;8.074;2023-06-14T04:19:06;4.97;;;3.10;;
10894;SDS011;5500;49.886;8.074;2023-06-14T04:21:34;4.57;;;3.40;;
10894;SDS011;5500;49.886;8.074;2023-06-14T04:24:03;7.83;;;3.57;;
10894;SDS011;5500;49.886;8.074;2023-06-14T04:26:31;4.43;;;3.40;;
10894;SDS011;5500;49.886;8.074;2023-06-14T04:29:00;5.47;;;3.40;;
10894;SDS011;5500;49.886;8.074;2023-06-14T04:31:30;13.07;;;3.53;;
10894;SDS011;5500;49.886;8.074;2023-06-14T04:34:00;5.80;;;3.10;;
10894;SDS011;5500;49.886;8.074;2023-06-14T04:36:32;6.53;;;3.90;;
10894;SDS011;5500;49.886;8.074;2023-06-14T04:39:00;4.23;;;3.17;;
10894;SDS011;5500;49.886;8.074;2023-06-14T04:41:30;6.07;;;3.80;;
10894;SDS011;5500;49.886;8.074;2023-06-14T04:43:59;9.17;;;3.87;;
10894;SDS011;5500;49.886;8.074;2023-06-14T04:46:29;8.30;;;4.03;;
10894;SDS011;5500;49.886;8.074;2023-06-14T04:48:58;4.87;;;3.10;;
10894;SDS011;5500;49.886;8.074;2023-06-14T04:51:28;6.37;;;3.93;;
10894;SDS011;5500;49.886;8.074;2023-06-14T04:53:57;8.23;;;4.03;;
10894;SDS011;5500;49.886;8.074;2023-06-14T04:56:25;6.67;;;3.80;;
10894;SDS011;5500;49.886;8.074;2023-06-14T04:58:53;4.47;;;3.57;;
10894;SDS011;5500;49.886;8.074;2023-06-14T05:01:22;4.17;;;3.57;;
10894;SDS011;5500;49.886;8.074;2023-06-14T05:03:52;7.87;;;3.80;;
10894;SDS011;5500;49.886;8.074;2023-06-14T05:06:19;6.17;;;3.30;;
10894;SDS011;5500;49.886;8.074;2023-06-14T05:08:48;5.73;;;3.33;;
10894;SDS011;5500;49.886;8.074;2023-06-14T05:11:16;5.63;;;3.60;;
10894;SDS011;5500;49.886;8.074;2023-06-14T05:13:44;6.40;;;4.00;;
10894;SDS011;5500;49.886;8.074;2023-06-14T05:16:12;5.63;;;3.77;;
10894;SDS011;5500;49.886;8.074;2023-06-14T05:18:45;5.87;;;3.47;;
10894;SDS011;5500;49.886;8.074;2023-06-14T05:21:14;5.07;;;3.53;;
10894;SDS011;5500;49.886;8.074;2023-06-14T05:23:44;6.77;;;3.87;;
10894;SDS011;5500;49.886;8.074;2023-06-14T05:26:12;10.07;;;4.10;;
10894;SDS011;5500;49.886;8.074;2023-06-14T05:28:41;3.37;;;3.00;;
10894;SDS011;5500;49.886;8.074;2023-06-14T05:31:08;10.83;;;3.57;;
10894;SDS011;5500;49.886;8.074;2023-06-14T05:33:36;7.70;;;3.80;;
10894;SDS011;5500;49.886;8.074;2023-06-14T05:36:04;5.60;;;3.90;;
10894;SDS011;5500;49.886;8.074;2023-06-14T05:38:35;11.07;;;3.83;;
10894;SDS011;5500;49.886;8.074;2023-06-14T05:41:03;4.23;;;2.90;;
10894;SDS011;5500;49.886;8.074;2023-06-14T05:43:30;9.90;;;3.60;;
10894;SDS011;5500;49.886;8.074;2023-06-14T05:45:58;4.87;;;3.70;;
10894;SDS011;5500;49.886;8.074;2023-06-14T05:48:26;6.27;;;3.83;;
10894;SDS011;5500;49.886;8.074;2023-06-14T05:50:55;7.43;;;3.53;;
10894;SDS011;5500;49.886;8.074;2023-06-14T05:53:23;9.33;;;3.60;;
10894;SDS011;5500;49.886;8.074;2023-06-14T05:55:52;9.33;;;3.97;;
10894;SDS011;5500;49.886;8.074;2023-06-14T05:58:21;5.87;;;3.77;;
10894;SDS011;5500;49.886;8.074;2023-06-14T06:00:49;4.43;;;3.90;;
10894;SDS011;5500;49.886;8.074;2023-06-14T06:03:17;6.30;;;3.30;;
10894;SDS011;5500;49.886;8.074;2023-06-14T06:05:44;9.07;;;3.53;;
10894;SDS011;5500;49.886;8.074;2023-06-14T06:08:12;4.23;;;3.57;;
10894;SDS011;5500;49.886;8.074;2023-06-14T06:10:40;5.93;;;3.93;;
10894;SDS011;5500;49.886;8.074;2023-06-14T06:13:10;4.27;;;3.47;;
10894;SDS011;5500;49.886;8.074;2023-06-14T06:15:37;7.27;;;3.50;;
10894;SDS011;5500;49.886;8.074;2023-06-14T06:18:05;9.67;;;3.70;;
10894;SDS011;5500;49.886;8.074;2023-06-14T06:20:33;5.73;;;3.50;;
10894;SDS011;5500;49.886;8.074;2023-06-14T06:23:02;4.80;;;3.20;;
10894;SDS011;5500;49.886;8.074;2023-06-14T06:25:29;5.73;;;3.20;;
10894;SDS011;5500;49.886;8.074;2023-06-14T06:27:58;5.47;;;3.33;;
10894;SDS011;5500;49.886;8.074;2023-06-14T06:30:27;8.03;;;3.10;;
10894;SDS011;5500;49.886;8.074;2023-06-14T06:32:54;6.00;;;3.17;;
10894;SDS011;5500;49.886;8.074;2023-06-14T06:35:23;7.47;;;3.13;;
10894;SDS011;5500;49.886;8.074;2023-06-14T06:37:50;8.03;;;3.40;;
10894;SDS011;5500;49.886;8.074;2023-06-14T06:40:18;7.63;;;2.87;;
10894;SDS011;5500;49.886;8.074;2023-06-14T06:42:46;4.10;;;2.70;;
10894;SDS011;5500;49.886;8.074;2023-06-14T06:45:13;4.13;;;3.17;;
10894;SDS011;5500;49.886;8.074;2023-06-14T06:47:43;8.57;;;2.93;;
10894;SDS011;5500;49.886;8.074;2023-06-14T06:50:10;8.43;;;2.80;;
10894;SDS011;5500;49.886;8.074;2023-06-14T06:52:38;4.27;;;2.97;;
10894;SDS011;5500;49.886;8.074;2023-06-14T06:55:06;4.60;;;3.10;;
10894;SDS011;5500;49.886;8.074;2023-06-14T06:57:35;8.50;;;3.50;;
10894;SDS011;5500;49.886;8.074;2023-06-14T07:00:03;13.17;;;3.33;;
10894;SDS011;5500;49.886;8.074;2023-06-14T07:02:34;7.40;;;2.70;;
10894;SDS011;5500;49.886;8.074;2023-06-14T07:05:03;6.03;;;3.37;;
10894;SDS011;5500;49.886;8.074;2023-06-14T07:07:32;7.43;;;3.30;;
10894;SDS011;5500;49.886;8.074;2023-06-14T07:09:59;6.60;;;2.97;;
10894;SDS011;5500;49.886;8.074;2023-06-14T07:12:30;3.70;;;2.90;;
10894;SDS011;5500;49.886;8.074;2023-06-14T07:14:59;4.63;;;3.20;;
10894;SDS011;5500;49.886;8.074;2023-06-14T07:17:27;4.77;;;3.03;;
10894;SDS011;5500;49.886;8.074;2023-06-14T07:19:55;4.53;;;3.33;;
10894;SDS011;5500;49.886;8.074;2023-06-14T07:22:24;7.73;;;3.37;;
10894;SDS011;5500;49.886;8.074;2023-06-14T07:24:52;6.03;;;3.07;;
10894;SDS011;5500;49.886;8.074;2023-06-14T07:27:20;7.23;;;3.20;;
10894;SDS011;5500;49.886;8.074;2023-06-14T07:29:47;4.10;;;2.70;;
10894;SDS011;5500;49.886;8.074;2023-06-14T07:32:15;6.20;;;3.10;;
10894;SDS011;5500;49.886;8.074;2023-06-14T07:34:43;6.60;;;2.83;;
10894;SDS011;5500;49.886;8.074;2023-06-14T07:37:10;5.53;;;2.60;;
10894;SDS011;5500;49.886;8.074;2023-06-14T07:39:39;5.87;;;3.10;;
10894;SDS011;5500;49.886;8.074;2023-06-14T07:42:07;4.57;;;2.87;;
10894;SDS011;5500;49.886;8.074;2023-06-14T07:44:35;6.23;;;2.80;;
10894;SDS011;5500;49.886;8.074;2023-06-14T07:47:03;5.53;;;2.87;;
10894;SDS011;5500;49.886;8.074;2023-06-14T07:49:31;8.03;;;2.90;;
10894;SDS011;5500;49.886;8.074;2023-06-14T07:51:59;3.43;;;3.00;;
10894;SDS011;5500;49.886;8.074;2023-06-14T07:54:26;4.53;;;2.80;;
10894;SDS011;5500;49.886;8.074;2023-06-14T07:56:56;3.63;;;2.93;;
10894;SDS011;5500;49.886;8.074;2023-06-14T07:59:26;2.93;;;2.63;;
10894;SDS011;5500;49.886;8.074;2023-06-14T08:01:54;7.03;;;2.73;;
10894;SDS011;5500;49.886;8.074;2023-06-14T08:04:22;6.93;;;2.83;;
10894;SDS011;5500;49.886;8.074;2023-06-14T08:06:50;6.40;;;2.60;;
10894;SDS011;5500;49.886;8.074;2023-06-14T08:09:18;2.87;;;2.27;;
10894;SDS011;5500;49.886;8.074;2023-06-14T08:11:46;7.43;;;2.60;;
10894;SDS011;5500;49.886;8.074;2023-06-14T08:14:15;4.97;;;2.50;;
10894;SDS011;5500;49.886;8.074;2023-06-14T08:16:43;4.23;;;2.30;;
10894;SDS011;5500;49.886;8.074;2023-06-14T08:19:10;4.77;;;2.43;;
10894;SDS011;5500;49.886;8.074;2023-06-14T08:21:38;2.80;;;2.40;;
10894;SDS011;5500;49.886;8.074;2023-06-14T08:24:06;5.57;;;2.20;;
10894;SDS011;5500;49.886;8.074;2023-06-14T08:26:34;4.87;;;2.50;;
10894;SDS011;5500;49.886;8.074;2023-06-14T08:29:03;3.00;;;2.10;;
10894;SDS011;5500;49.886;8.074;2023-06-14T08:31:32;7.13;;;2.30;;
10894;SDS011;5500;49.886;8.074;2023-06-14T08:33:59;4.23;;;2.43;;
10894;SDS011;5500;49.886;8.074;2023-06-14T08:36:30;2.27;;;2.07;;
10894;SDS011;5500;49.886;8.074;2023-06-14T08:38:58;3.20;;;2.20;;
10894;SDS011;5500;49.886;8.074;2023-06-14T08:41:26;4.23;;;2.30;;
10894;SDS011;5500;49.886;8.074;2023-06-14T08:43:56;8.97;;;2.20;;
10894;SDS011;5500;49.886;8.074;2023-06-14T08:46:25;3.40;;;2.30;;
10894;SDS011;5500;49.886;8.074;2023-06-14T08:48:55;5.67;;;2.23;;
10894;SDS011;5500;49.886;8.074;2023-06-14T08:51:24;5.83;;;2.90;;
10894;SDS011;5500;49.886;8.074;2023-06-14T08:53:53;4.47;;;2.23;;
10894;SDS011;5500;49.886;8.074;2023-06-14T08:56:24;3.80;;;2.10;;
10894;SDS011;5500;49.886;8.074;2023-06-14T08:58:54;2.90;;;2.30;;
10894;SDS011;5500;49.886;8.074;2023-06-14T09:01:22;4.10;;;1.73;;
10894;SDS011;5500;49.886;8.074;2023-06-14T09:03:50;3.33;;;2.20;;
10894;SDS011;5500;49.886;8.074;2023-06-14T09:06:19;2.10;;;1.90;;
10894;SDS011;5500;49.886;8.074;2023-06-14T09:08:49;3.57;;;2.00;;
10894;SDS011;5500;49.886;8.074;2023-06-14T09:11:17;8.83;;;2.67;;
10894;SDS011;5500;49.886;8.074;2023-06-14T09:13:46;2.23;;;2.00;;
10894;SDS011;5500;49.886;8.074;2023-06-14T09:16:14;4.47;;;1.90;;
10894;SDS011;5500;49.886;8.074;2023-06-14T09:18:42;2.10;;;1.90;;
10894;SDS011;5500;49.886;8.074;2023-06-14T09:21:11;5.80;;;1.90;;
10894;SDS011;5500;49.886;8.074;2023-06-14T09:23:41;2.97;;;1.80;;
10894;SDS011;5500;49.886;8.074;2023-06-14T09:26:09;3.40;;;2.00;;
10894;SDS011;5500;49.886;8.074;2023-06-14T09:28:41;8.07;;;2.60;;
10894;SDS011;5500;49.886;8.074;2023-06-14T09:31:12;2.43;;;2.10;;
10894;SDS011;5500;49.886;8.074;2023-06-14T09:33:41;3.10;;;1.80;;
10894;SDS011;5500;49.886;8.074;2023-06-14T09:36:10;2.10;;;1.90;;
10894;SDS011;5500;49.886;8.074;2023-06-14T09:38:40;3.93;;;1.77;;
10894;SDS011;5500;49.886;8.074;2023-06-14T09:41:09;2.80;;;1.93;;
10894;SDS011;5500;49.886;8.074;2023-06-14T09:43:36;2.07;;;1.50;;
10894;SDS011;5500;49.886;8.074;2023-06-14T09:46:05;2.40;;;1.63;;
10894;SDS011;5500;49.886;8.074;2023-06-14T09:48:33;2.10;;;1.90;;
10894;SDS011;5500;49.886;8.074;2023-06-14T09:51:01;1.87;;;1.60;;
10894;SDS011;5500;49.886;8.074;2023-06-14T09:53:30;1.90;;;1.70;;
10894;SDS011;5500;49.886;8.074;2023-06-14T09:56:00;2.10;;;1.90;;
10894;SDS011;5500;49.886;8.074;2023-06-14T09:58:28;4.00;;;1.93;;
10894;SDS011;5500;49.886;8.074;2023-06-14T10:00:56;2.23;;;1.60;;
10894;SDS011;5500;49.886;8.074;2023-06-14T10:03:25;1.77;;;1.67;;
10894;SDS011;5500;49.886;8.074;2023-06-14T10:06:09;2.63;;;1.80;;
10894;SDS011;5500;49.886;8.074;2023-06-14T10:08:37;3.83;;;1.63;;
10894;SDS011;5500;49.886;8.074;2023-06-14T10:11:06;6.37;;;1.77;;
10894;SDS011;5500;49.886;8.074;2023-06-14T10:13:34;2.40;;;1.80;;
10894;SDS011;5500;49.886;8.074;2023-06-14T10:16:05;1.80;;;1.47;;
10894;SDS011;5500;49.886;8.074;2023-06-14T10:18:39;2.37;;;1.63;;
10894;SDS011;5500;49.886;8.074;2023-06-14T10:21:13;3.17;;;1.50;;
10894;SDS011;5500;49.886;8.074;2023-06-14T10:23:44;5.83;;;2.13;;
10894;SDS011;5500;49.886;8.074;2023-06-14T10:26:21;3.37;;;1.63;;
10894;SDS011;5500;49.886;8.074;2023-06-14T10:28:57;3.17;;;1.60;;
10894;SDS011;5500;49.886;8.074;2023-06-14T10:31:41;3.60;;;1.60;;
10894;SDS011;5500;49.886;8.074;2023-06-14T10:34:10;2.83;;;1.80;;
10894;SDS011;5500;49.886;8.074;2023-06-14T10:36:40;6.63;;;1.90;;
10894;SDS011;5500;49.886;8.074;2023-06-14T10:39:12;2.97;;;1.77;;
10894;SDS011;5500;49.886;8.074;2023-06-14T10:41:50;2.77;;;1.60;;
10894;SDS011;5500;49.886;8.074;2023-06-14T10:47:22;2.47;;;1.83;;
10894;SDS011;5500;49.886;8.074;2023-06-14T10:49:52;2.93;;;1.90;;
10894;SDS011;5500;49.886;8.074;2023-06-14T10:52:22;2.90;;;1.80;;
10894;SDS011;5500;49.886;8.074;2023-06-14T10:55:04;2.53;;;1.60;;
10894;SDS011;5500;49.886;8.074;2023-06-14T10:57:37;3.73;;;1.80;;
10894;SDS011;5500;49.886;8.074;2023-06-14T11:00:17;2.67;;;1.73;;
10894;SDS011;5500;49.886;8.074;2023-06-14T11:02:53;6.17;;;1.77;;
10894;SDS011;5500;49.886;8.074;2023-06-14T11:05:53;1.70;;;1.60;;
10894;SDS011;5500;49.886;8.074;2023-06-14T11:08:45;6.23;;;2.10;;
10894;SDS011;5500;49.886;8.074;2023-06-14T11:11:37;2.70;;;1.70;;
10894;SDS011;5500;49.886;8.074;2023-06-14T11:14:06;3.47;;;1.70;;
10894;SDS011;5500;49.886;8.074;2023-06-14T11:16:34;2.07;;;1.93;;
10894;SDS011;5500;49.886;8.074;2023-06-14T11:19:02;3.13;;;1.60;;
10894;SDS011;5500;49.886;8.074;2023-06-14T11:21:31;2.53;;;1.90;;
10894;SDS011;5500;49.886;8.074;2023-06-14T11:23:59;1.93;;;1.73;;
10894;SDS011;5500;49.886;8.074;2023-06-14T11:26:27;2.90;;;1.90;;
10894;SDS011;5500;49.886;8.074;2023-06-14T11:28:56;4.77;;;1.73;;
10894;SDS011;5500;49.886;8.074;2023-06-14T11:31:26;2.17;;;1.80;;
10894;SDS011;5500;49.886;8.074;2023-06-14T11:33:56;3.60;;;1.77;;
10894;SDS011;5500;49.886;8.074;2023-06-14T11:36:26;2.60;;;1.80;;
10894;SDS011;5500;49.886;8.074;2023-06-14T11:38:59;5.73;;;2.50;;
10894;SDS011;5500;49.886;8.074;2023-06-14T11:41:32;8.37;;;1.90;;
10894;SDS011;5500;49.886;8.074;2023-06-14T11:44:00;3.07;;;1.80;;
10894;SDS011;5500;49.886;8.074;2023-06-14T11:46:30;4.37;;;1.53;;
10894;SDS011;5500;49.886;8.074;2023-06-14T11:48:58;2.80;;;1.57;;
10894;SDS011;5500;49.886;8.074;2023-06-14T11:51:29;3.33;;;1.70;;
10894;SDS011;5500;49.886;8.074;2023-06-14T11:53:57;3.93;;;1.60;;
10894;SDS011;5500;49.886;8.074;2023-06-14T11:56:25;1.63;;;1.53;;
10894;SDS011;5500;49.886;8.074;2023-06-14T11:58:54;2.70;;;1.40;;
10894;SDS011;5500;49.886;8.074;2023-06-14T12:01:23;1.60;;;1.50;;
10894;SDS011;5500;49.886;8.074;2023-06-14T12:03:54;3.30;;;1.70;;
10894;SDS011;5500;49.886;8.074;2023-06-14T12:06:25;2.13;;;1.40;;
10894;SDS011;5500;49.886;8.074;2023-06-14T12:08:55;3.40;;;1.60;;
10894;SDS011;5500;49.886;8.074;2023-06-14T12:11:23;2.53;;;1.80;;
10894;SDS011;5500;49.886;8.074;2023-06-14T12:13:51;4.47;;;1.53;;
10894;SDS011;5500;49.886;8.074;2023-06-14T12:16:19;2.67;;;1.70;;
10894;SDS011;5500;49.886;8.074;2023-06-14T12:18:47;1.60;;;1.50;;
10894;SDS011;5500;49.886;8.074;2023-06-14T12:21:17;4.90;;;2.00;;
10894;SDS011;5500;49.886;8.074;2023-06-14T12:23:50;1.77;;;1.50;;
10894;SDS011;5500;49.886;8.074;2023-06-14T12:26:19;1.90;;;1.40;;
10894;SDS011;5500;49.886;8.074;2023-06-14T12:28:47;1.97;;;1.37;;
10894;SDS011;5500;49.886;8.074;2023-06-14T12:31:15;4.30;;;1.83;;
10894;SDS011;5500;49.886;8.074;2023-06-14T12:33:46;3.77;;;2.00;;
10894;SDS011;5500;49.886;8.074;2023-06-14T12:36:15;2.10;;;1.90;;
10894;SDS011;5500;49.886;8.074;2023-06-14T12:38:48;1.80;;;1.70;;
10894;SDS011;5500;49.886;8.074;2023-06-14T12:41:19;4.20;;;2.07;;
10894;SDS011;5500;49.886;8.074;2023-06-14T12:43:47;2.63;;;1.93;;
10894;SDS011;5500;49.886;8.074;2023-06-14T12:46:15;1.70;;;1.60;;
10894;SDS011;5500;49.886;8.074;2023-06-14T12:48:44;3.20;;;2.10;;
10894;SDS011;5500;49.886;8.074;2023-06-14T12:51:11;5.00;;;1.97;;
10894;SDS011;5500;49.886;8.074;2023-06-14T12:53:39;2.53;;;2.07;;
10894;SDS011;5500;49.886;8.074;2023-06-14T12:56:08;3.20;;;2.00;;
10894;SDS011;5500;49.886;8.074;2023-06-14T12:58:36;3.87;;;1.83;;
10894;SDS011;5500;49.886;8.074;2023-06-14T13:01:04;2.30;;;1.80;;
10894;SDS011;5500;49.886;8.074;2023-06-14T13:03:31;2.50;;;2.10;;
10894;SDS011;5500;49.886;8.074;2023-06-14T13:06:00;4.30;;;1.70;;
10894;SDS011;5500;49.886;8.074;2023-06-14T13:08:29;3.90;;;2.20;;
10894;SDS011;5500;49.886;8.074;2023-06-14T13:10:57;3.27;;;1.90;;
10894;SDS011;5500;49.886;8.074;2023-06-14T13:13:26;5.93;;;2.20;;
10894;SDS011;5500;49.886;8.074;2023-06-14T13:15:54;3.93;;;2.00;;
10894;SDS011;5500;49.886;8.074;2023-06-14T13:18:21;5.73;;;2.10;;
10894;SDS011;5500;49.886;8.074;2023-06-14T13:20:49;2.97;;;2.17;;
10894;SDS011;5500;49.886;8.074;2023-06-14T13:23:17;2.63;;;2.23;;
10894;SDS011;5500;49.886;8.074;2023-06-14T13:25:45;2.33;;;2.13;;
10894;SDS011;5500;49.886;8.074;2023-06-14T13:28:13;2.93;;;2.13;;
10894;SDS011;5500;49.886;8.074;2023-06-14T13:30:42;3.60;;;2.10;;
10894;SDS011;5500;49.886;8.074;2023-06-14T13:33:10;2.60;;;2.20;;
10894;SDS011;5500;49.886;8.074;2023-06-14T13:35:37;3.47;;;2.00;;
10894;SDS011;5500;49.886;8.074;2023-06-14T13:38:05;3.17;;;2.30;;
10894;SDS011;5500;49.886;8.074;2023-06-14T13:40:33;2.57;;;2.37;;
10894;SDS011;5500;49.886;8.074;2023-06-14T13:43:00;1.90;;;1.80;;
10894;SDS011;5500;49.886;8.074;2023-06-14T13:45:28;2.63;;;2.10;;
10894;SDS011;5500;49.886;8.074;2023-06-14T13:47:57;2.57;;;1.97;;
10894;SDS011;5500;49.886;8.074;2023-06-14T13:50:25;2.00;;;1.90;;
10894;SDS011;5500;49.886;8.074;2023-06-14T13:52:53;3.00;;;1.90;;
10894;SDS011;5500;49.886;8.074;2023-06-14T13:55:21;3.93;;;2.60;;
10894;SDS011;5500;49.886;8.074;2023-06-14T13:57:48;2.17;;;1.97;;
10894;SDS011;5500;49.886;8.074;2023-06-14T14:00:16;2.63;;;2.00;;
10894;SDS011;5500;49.886;8.074;2023-06-14T14:02:49;7.40;;;2.30;;
10894;SDS011;5500;49.886;8.074;2023-06-14T14:05:18;2.50;;;2.17;;
10894;SDS011;5500;49.886;8.074;2023-06-14T14:07:47;2.30;;;1.80;;
10894;SDS011;5500;49.886;8.074;2023-06-14T14:10:14;2.93;;;2.00;;
10894;SDS011;5500;49.886;8.074;2023-06-14T14:12:42;4.17;;;2.20;;
10894;SDS011;5500;49.886;8.074;2023-06-14T14:15:14;4.97;;;2.13;;
10894;SDS011;5500;49.886;8.074;2023-06-14T14:17:42;2.03;;;1.83;;
10894;SDS011;5500;49.886;8.074;2023-06-14T14:20:10;2.60;;;2.40;;
10894;SDS011;5500;49.886;8.074;2023-06-14T14:22:43;4.03;;;2.07;;
10894;SDS011;5500;49.886;8.074;2023-06-14T14:25:11;2.03;;;1.87;;
10894;SDS011;5500;49.886;8.074;2023-06-14T14:27:38;2.10;;;1.90;;
10894;SDS011;5500;49.886;8.074;2023-06-14T14:30:06;3.03;;;1.97;;
10894;SDS011;5500;49.886;8.074;2023-06-14T14:32:35;2.30;;;2.10;;
10894;SDS011;5500;49.886;8.074;2023-06-14T14:35:03;2.47;;;2.00;;
10894;SDS011;5500;49.886;8.074;2023-06-14T14:37:31;4.37;;;1.90;;
10894;SDS011;5500;49.886;8.074;2023-06-14T14:40:00;5.00;;;2.40;;
10894;SDS011;5500;49.886;8.074;2023-06-14T14:42:30;3.13;;;2.10;;
10894;SDS011;5500;49.886;8.074;2023-06-14T14:44:57;2.53;;;2.33;;
10894;SDS011;5500;49.886;8.074;2023-06-14T14:47:25;5.60;;;2.23;;
10894;SDS011;5500;49.886;8.074;2023-06-14T14:49:53;2.57;;;2.27;;
10894;SDS011;5500;49.886;8.074;2023-06-14T14:52:20;4.13;;;2.20;;
10894;SDS011;5500;49.886;8.074;2023-06-14T14:54:49;3.60;;;2.30;;
10894;SDS011;5500;49.886;8.074;2023-06-14T14:57:19;5.23;;;2.27;;
10894;SDS011;5500;49.886;8.074;2023-06-14T14:59:46;3.43;;;2.23;;
10894;SDS011;5500;49.886;8.074;2023-06-14T15:02:14;2.93;;;2.00;;
10894;SDS011;5500;49.886;8.074;2023-06-14T15:04:42;2.93;;;2.00;;
10894;SDS011;5500;49.886;8.074;2023-06-14T15:07:09;2.50;;;2.20;;
10894;SDS011;5500;49.886;8.074;2023-06-14T15:09:37;2.87;;;2.27;;
10894;SDS011;5500;49.886;8.074;2023-06-14T15:12:05;2.47;;;2.17;;
10894;SDS011;5500;49.886;8.074;2023-06-14T15:14:35;2.90;;;2.33;;